sensor_id;sensor_type;location;lat;lon;timestamp;P1;durP1;ratioP1;P2;durP2;ratioP2
6537;SDS011;3302;52.508;13.454;2023-05-07T00:01:46;12.23;;;10.10;;
6537;SDS011;3302;52.508;13.454;2023-05-07T00:04:12;11.80;;;8.63;;
6537;SDS011;3302;52.508;13.454;2023-05-07T00:06:38;12.43;;;9.20;;
6537;SDS011;3302;52.508;13.454;2023-05-07T00:09:05;11.23;;;8.90;;
6537;SDS011;3302;52.508;13.454;2023-05-07T00:11:31;10.23;;;9.23;;
6537;SDS011;3302;52.508;13.454;2023-05-07T00:13:58;10.33;;;8.87;;
6537;SDS011;3302;52.508;13.454;2023-05-07T00:16:24;11.63;;;9.37;;
6537;SDS011;3302;52.508;13.454;2023-05-07T00:18:49;10.30;;;8.40;;
6537;SDS011;3302;52.508;13.454;2023-05-07T00:21:15;9.17;;;8.20;;
6537;SDS011;3302;52.508;13.454;2023-05-07T00:23:41;9.43;;;8.47;;
6537;SDS011;3302;52.508;13.454;2023-05-07T00:26:07;9.30;;;8.33;;
6537;SDS011;3302;52.508;13.454;2023-05-07T00:28:33;10.30;;;8.40;;
6537;SDS011;3302;52.508;13.454;2023-05-07T00:30:58;10.70;;;7.73;;
6537;SDS011;3302;52.508;13.454;2023-05-07T00:33:24;8.57;;;7.70;;
6537;SDS011;3302;52.508;13.454;2023-05-07T00:35:51;9.63;;;8.47;;
6537;SDS011;3302;52.508;13.454;2023-05-07T00:38:19;9.57;;;8.10;;
6537;SDS011;3302;52.508;13.454;2023-05-07T00:40:45;8.77;;;7.87;;
6537;SDS011;3302;52.508;13.454;2023-05-07T00:43:11;9.43;;;7.50;;
6537;SDS011;3302;52.508;13.454;2023-05-07T00:45:37;9.40;;;7.97;;
6537;SDS011;3302;52.508;13.454;2023-05-07T00:48:03;8.83;;;7.90;;
6537;SDS011;3302;52.508;13.454;2023-05-07T00:50:30;8.20;;;7.33;;
6537;SDS011;3302;52.508;13.454;2023-05-07T00:52:57;8.70;;;7.80;;
6537;SDS011;3302;52.508;13.454;2023-05-07T00:55:24;8.57;;;7.50;;
6537;SDS011;3302;52.508;13.454;2023-05-07T00:57:50;9.53;;;8.40;;
6537;SDS011;3302;52.508;13.454;2023-05-07T01:00:16;10.73;;;8.73;;
6537;SDS011;3302;52.508;13.454;2023-05-07T01:02:43;10.17;;;8.27;;
6537;SDS011;3302;52.508;13.454;2023-05-07T01:05:12;10.13;;;9.03;;
6537;SDS011;3302;52.508;13.454;2023-05-07T01:07:40;11.20;;;8.93;;
6537;SDS011;3302;52.508;13.454;2023-05-07T01:10:07;10.73;;;8.93;;
6537;SDS011;3302;52.508;13.454;2023-05-07T01:12:35;9.00;;;8.10;;
6537;SDS011;3302;52.508;13.454;2023-05-07T01:15:02;11.93;;;9.37;;
6537;SDS011;3302;52.508;13.454;2023-05-07T01:17:29;9.23;;;8.23;;
6537;SDS011;3302;52.508;13.454;2023-05-07T01:20:00;8.63;;;7.73;;
6537;SDS011;3302;52.508;13.454;2023-05-07T01:22:30;8.83;;;7.53;;
6537;SDS011;3302;52.508;13.454;2023-05-07T01:25:04;8.43;;;7.63;;
6537;SDS011;3302;52.508;13.454;2023-05-07T01:27:31;8.80;;;7.90;;
6537;SDS011;3302;52.508;13.454;2023-05-07T01:29:59;9.07;;;8.13;;
6537;SDS011;3302;52.508;13.454;2023-05-07T01:32:29;9.53;;;7.67;;
6537;SDS011;3302;52.508;13.454;2023-05-07T01:35:01;8.73;;;7.83;;
6537;SDS011;3302;52.508;13.454;2023-05-07T01:37:30;8.67;;;7.40;;
6537;SDS011;3302;52.508;13.454;2023-05-07T01:39:56;8.57;;;7.67;;
6537;SDS011;3302;52.508;13.454;2023-05-07T01:42:22;9.67;;;7.60;;
6537;SDS011;3302;52.508;13.454;2023-05-07T01:44:48;9.67;;;8.63;;
6537;SDS011;3302;52.508;13.454;2023-05-07T01:47:14;8.20;;;7.33;;
6537;SDS011;3302;52.508;13.454;2023-05-07T01:49:41;8.60;;;6.77;;
6537;SDS011;3302;52.508;13.454;2023-05-07T01:52:08;8.60;;;7.70;;
6537;SDS011;3302;52.508;13.454;2023-05-07T01:54:35;8.37;;;7.33;;
6537;SDS011;3302;52.508;13.454;2023-05-07T01:57:01;10.07;;;7.50;;
6537;SDS011;3302;52.508;13.454;2023-05-07T01:59:26;8.37;;;7.57;;
6537;SDS011;3302;52.508;13.454;2023-05-07T02:01:52;7.97;;;7.17;;
6537;SDS011;3302;52.508;13.454;2023-05-07T02:04:18;8.30;;;6.90;;
6537;SDS011;3302;52.508;13.454;2023-05-07T02:06:44;9.73;;;8.17;;
6537;SDS011;3302;52.508;13.454;2023-05-07T02:09:09;10.13;;;7.50;;
6537;SDS011;3302;52.508;13.454;2023-05-07T02:11:35;8.77;;;7.57;;
6537;SDS011;3302;52.508;13.454;2023-05-07T02:14:01;9.23;;;7.90;;
6537;SDS011;3302;52.508;13.454;2023-05-07T02:16:27;8.87;;;7.53;;
6537;SDS011;3302;52.508;13.454;2023-05-07T02:18:52;8.73;;;7.83;;
6537;SDS011;3302;52.508;13.454;2023-05-07T02:21:18;7.97;;;7.17;;
6537;SDS011;3302;52.508;13.454;2023-05-07T02:23:44;10.27;;;8.07;;
6537;SDS011;3302;52.508;13.454;2023-05-07T02:26:10;8.00;;;7.20;;
6537;SDS011;3302;52.508;13.454;2023-05-07T02:28:36;8.90;;;8.00;;
6537;SDS011;3302;52.508;13.454;2023-05-07T02:31:02;8.37;;;7.53;;
6537;SDS011;3302;52.508;13.454;2023-05-07T02:33:29;8.37;;;7.53;;
6537;SDS011;3302;52.508;13.454;2023-05-07T02:35:55;9.73;;;7.80;;
6537;SDS011;3302;52.508;13.454;2023-05-07T02:38:20;8.70;;;7.80;;
6537;SDS011;3302;52.508;13.454;2023-05-07T02:40:46;9.37;;;7.80;;
6537;SDS011;3302;52.508;13.454;2023-05-07T02:43:12;8.43;;;7.57;;
6537;SDS011;3302;52.508;13.454;2023-05-07T02:45:38;8.17;;;7.27;;
6537;SDS011;3302;52.508;13.454;2023-05-07T02:48:04;9.10;;;7.77;;
6537;SDS011;3302;52.508;13.454;2023-05-07T02:50:33;10.83;;;7.63;;
6537;SDS011;3302;52.508;13.454;2023-05-07T02:52:59;8.70;;;7.20;;
6537;SDS011;3302;52.508;13.454;2023-05-07T02:55:25;8.30;;;7.47;;
6537;SDS011;3302;52.508;13.454;2023-05-07T02:57:50;7.90;;;7.10;;
6537;SDS011;3302;52.508;13.454;2023-05-07T03:00:17;8.73;;;7.37;;
6537;SDS011;3302;52.508;13.454;2023-05-07T03:02:44;8.87;;;7.20;;
6537;SDS011;3302;52.508;13.454;2023-05-07T03:05:10;8.60;;;7.80;;
6537;SDS011;3302;52.508;13.454;2023-05-07T03:07:37;8.90;;;7.10;;
6537;SDS011;3302;52.508;13.454;2023-05-07T03:10:03;8.30;;;7.37;;
6537;SDS011;3302;52.508;13.454;2023-05-07T03:12:30;9.20;;;7.27;;
6537;SDS011;3302;52.508;13.454;2023-05-07T03:14:56;9.73;;;7.17;;
6537;SDS011;3302;52.508;13.454;2023-05-07T03:17:22;7.67;;;6.87;;
6537;SDS011;3302;52.508;13.454;2023-05-07T03:19:48;8.90;;;6.73;;
6537;SDS011;3302;52.508;13.454;2023-05-07T03:22:14;8.13;;;7.30;;
6537;SDS011;3302;52.508;13.454;2023-05-07T03:24:39;7.97;;;7.13;;
6537;SDS011;3302;52.508;13.454;2023-05-07T03:27:05;8.50;;;6.90;;
6537;SDS011;3302;52.508;13.454;2023-05-07T03:29:31;8.60;;;7.63;;
6537;SDS011;3302;52.508;13.454;2023-05-07T03:31:57;7.63;;;6.90;;
6537;SDS011;3302;52.508;13.454;2023-05-07T03:34:22;9.00;;;7.07;;
6537;SDS011;3302;52.508;13.454;2023-05-07T03:36:49;7.97;;;7.03;;
6537;SDS011;3302;52.508;13.454;2023-05-07T03:39:15;9.40;;;7.10;;
6537;SDS011;3302;52.508;13.454;2023-05-07T03:41:40;9.37;;;7.43;;
6537;SDS011;3302;52.508;13.454;2023-05-07T03:44:06;7.90;;;7.10;;
6537;SDS011;3302;52.508;13.454;2023-05-07T03:46:32;7.50;;;6.70;;
6537;SDS011;3302;52.508;13.454;2023-05-07T03:48:59;9.07;;;7.20;;
6537;SDS011;3302;52.508;13.454;2023-05-07T03:51:25;8.93;;;7.27;;
6537;SDS011;3302;52.508;13.454;2023-05-07T03:53:51;7.60;;;6.90;;
6537;SDS011;3302;52.508;13.454;2023-05-07T03:56:22;7.20;;;6.23;;
6537;SDS011;3302;52.508;13.454;2023-05-07T03:58:51;7.63;;;6.93;;
6537;SDS011;3302;52.508;13.454;2023-05-07T04:01:17;7.70;;;6.63;;
6537;SDS011;3302;52.508;13.454;2023-05-07T04:03:43;8.10;;;6.97;;
6537;SDS011;3302;52.508;13.454;2023-05-07T04:06:09;7.57;;;6.27;;
6537;SDS011;3302;52.508;13.454;2023-05-07T04:08:35;8.70;;;6.90;;
6537;SDS011;3302;52.508;13.454;2023-05-07T04:11:01;7.63;;;6.83;;
6537;SDS011;3302;52.508;13.454;2023-05-07T04:13:27;7.20;;;6.03;;
6537;SDS011;3302;52.508;13.454;2023-05-07T04:15:54;7.77;;;6.40;;
6537;SDS011;3302;52.508;13.454;2023-05-07T04:18:20;8.43;;;6.53;;
6537;SDS011;3302;52.508;13.454;2023-05-07T04:20:47;7.10;;;6.20;;
6537;SDS011;3302;52.508;13.454;2023-05-07T04:23:14;8.93;;;6.97;;
6537;SDS011;3302;52.508;13.454;2023-05-07T04:25:40;7.40;;;6.70;;
6537;SDS011;3302;52.508;13.454;2023-05-07T04:28:06;7.87;;;7.07;;
6537;SDS011;3302;52.508;13.454;2023-05-07T04:30:32;8.10;;;7.30;;
6537;SDS011;3302;52.508;13.454;2023-05-07T04:32:58;6.60;;;5.93;;
6537;SDS011;3302;52.508;13.454;2023-05-07T04:35:24;8.00;;;6.43;;
6537;SDS011;3302;52.508;13.454;2023-05-07T04:37:49;7.90;;;6.60;;
6537;SDS011;3302;52.508;13.454;2023-05-07T04:40:15;7.17;;;6.03;;
6537;SDS011;3302;52.508;13.454;2023-05-07T04:42:41;7.00;;;5.87;;
6537;SDS011;3302;52.508;13.454;2023-05-07T04:45:07;6.50;;;5.80;;
6537;SDS011;3302;52.508;13.454;2023-05-07T04:47:34;6.63;;;5.97;;
6537;SDS011;3302;52.508;13.454;2023-05-07T04:49:59;8.10;;;6.30;;
6537;SDS011;3302;52.508;13.454;2023-05-07T04:52:25;6.73;;;5.80;;
6537;SDS011;3302;52.508;13.454;2023-05-07T04:54:51;5.87;;;5.27;;
6537;SDS011;3302;52.508;13.454;2023-05-07T04:57:17;6.93;;;5.67;;
6537;SDS011;3302;52.508;13.454;2023-05-07T04:59:43;5.70;;;5.20;;
6537;SDS011;3302;52.508;13.454;2023-05-07T05:02:10;5.67;;;5.00;;
6537;SDS011;3302;52.508;13.454;2023-05-07T05:04:35;6.57;;;5.47;;
6537;SDS011;3302;52.508;13.454;2023-05-07T05:07:02;5.40;;;4.90;;
6537;SDS011;3302;52.508;13.454;2023-05-07T05:09:29;6.40;;;5.07;;
6537;SDS011;3302;52.508;13.454;2023-05-07T05:11:55;6.10;;;5.00;;
6537;SDS011;3302;52.508;13.454;2023-05-07T05:14:21;5.77;;;5.27;;
6537;SDS011;3302;52.508;13.454;2023-05-07T05:16:46;5.77;;;4.90;;
6537;SDS011;3302;52.508;13.454;2023-05-07T05:19:12;5.83;;;5.23;;
6537;SDS011;3302;52.508;13.454;2023-05-07T05:21:39;5.70;;;4.90;;
6537;SDS011;3302;52.508;13.454;2023-05-07T05:24:05;6.10;;;5.43;;
6537;SDS011;3302;52.508;13.454;2023-05-07T05:26:31;6.43;;;5.70;;
6537;SDS011;3302;52.508;13.454;2023-05-07T05:28:57;8.27;;;5.40;;
6537;SDS011;3302;52.508;13.454;2023-05-07T05:31:22;6.20;;;5.50;;
6537;SDS011;3302;52.508;13.454;2023-05-07T05:33:48;6.30;;;5.70;;
6537;SDS011;3302;52.508;13.454;2023-05-07T05:36:14;7.40;;;5.83;;
6537;SDS011;3302;52.508;13.454;2023-05-07T05:38:40;6.30;;;5.70;;
6537;SDS011;3302;52.508;13.454;2023-05-07T05:41:06;6.67;;;5.80;;
6537;SDS011;3302;52.508;13.454;2023-05-07T05:43:31;6.40;;;5.53;;
6537;SDS011;3302;52.508;13.454;2023-05-07T05:45:57;6.90;;;5.23;;
6537;SDS011;3302;52.508;13.454;2023-05-07T05:48:23;6.40;;;5.80;;
6537;SDS011;3302;52.508;13.454;2023-05-07T05:50:49;7.57;;;5.53;;
6537;SDS011;3302;52.508;13.454;2023-05-07T05:53:16;6.20;;;5.60;;
6537;SDS011;3302;52.508;13.454;2023-05-07T05:55:42;8.37;;;5.77;;
6537;SDS011;3302;52.508;13.454;2023-05-07T05:58:09;6.67;;;5.77;;
6537;SDS011;3302;52.508;13.454;2023-05-07T06:00:34;6.20;;;5.60;;
6537;SDS011;3302;52.508;13.454;2023-05-07T06:03:00;6.97;;;5.43;;
6537;SDS011;3302;52.508;13.454;2023-05-07T06:05:26;6.70;;;5.97;;
6537;SDS011;3302;52.508;13.454;2023-05-07T06:07:52;6.37;;;5.60;;
6537;SDS011;3302;52.508;13.454;2023-05-07T06:10:18;7.80;;;6.37;;
6537;SDS011;3302;52.508;13.454;2023-05-07T06:12:43;6.73;;;6.03;;
6537;SDS011;3302;52.508;13.454;2023-05-07T06:15:10;7.07;;;5.70;;
6537;SDS011;3302;52.508;13.454;2023-05-07T06:17:35;6.83;;;5.80;;
6537;SDS011;3302;52.508;13.454;2023-05-07T06:20:01;6.10;;;5.50;;
6537;SDS011;3302;52.508;13.454;2023-05-07T06:22:27;7.80;;;5.67;;
6537;SDS011;3302;52.508;13.454;2023-05-07T06:24:53;7.60;;;6.07;;
6537;SDS011;3302;52.508;13.454;2023-05-07T06:27:18;9.07;;;5.80;;
6537;SDS011;3302;52.508;13.454;2023-05-07T06:29:44;6.50;;;5.83;;
6537;SDS011;3302;52.508;13.454;2023-05-07T06:32:10;6.60;;;5.90;;
6537;SDS011;3302;52.508;13.454;2023-05-07T06:34:37;6.83;;;5.50;;
6537;SDS011;3302;52.508;13.454;2023-05-07T06:37:04;6.37;;;5.30;;
6537;SDS011;3302;52.508;13.454;2023-05-07T06:39:30;7.57;;;5.80;;
6537;SDS011;3302;52.508;13.454;2023-05-07T06:41:57;8.30;;;5.20;;
6537;SDS011;3302;52.508;13.454;2023-05-07T06:44:23;5.97;;;5.33;;
6537;SDS011;3302;52.508;13.454;2023-05-07T06:46:49;7.37;;;5.47;;
6537;SDS011;3302;52.508;13.454;2023-05-07T06:49:14;6.27;;;5.20;;
6537;SDS011;3302;52.508;13.454;2023-05-07T06:51:40;7.33;;;5.20;;
6537;SDS011;3302;52.508;13.454;2023-05-07T06:54:06;5.73;;;4.63;;
6537;SDS011;3302;52.508;13.454;2023-05-07T06:56:32;5.77;;;5.03;;
6537;SDS011;3302;52.508;13.454;2023-05-07T06:59:02;6.87;;;4.97;;
6537;SDS011;3302;52.508;13.454;2023-05-07T07:01:28;6.90;;;4.93;;
6537;SDS011;3302;52.508;13.454;2023-05-07T07:03:54;4.97;;;4.47;;
6537;SDS011;3302;52.508;13.454;2023-05-07T07:06:20;5.03;;;4.40;;
6537;SDS011;3302;52.508;13.454;2023-05-07T07:08:46;4.80;;;4.20;;
6537;SDS011;3302;52.508;13.454;2023-05-07T07:11:11;5.90;;;5.27;;
6537;SDS011;3302;52.508;13.454;2023-05-07T07:13:37;4.73;;;4.30;;
6537;SDS011;3302;52.508;13.454;2023-05-07T07:16:03;5.37;;;4.47;;
6537;SDS011;3302;52.508;13.454;2023-05-07T07:18:29;4.67;;;4.20;;
6537;SDS011;3302;52.508;13.454;2023-05-07T07:20:55;6.77;;;4.73;;
6537;SDS011;3302;52.508;13.454;2023-05-07T07:23:20;5.30;;;4.70;;
6537;SDS011;3302;52.508;13.454;2023-05-07T07:25:46;4.70;;;4.10;;
6537;SDS011;3302;52.508;13.454;2023-05-07T07:28:12;4.80;;;4.30;;
6537;SDS011;3302;52.508;13.454;2023-05-07T07:30:38;4.97;;;4.23;;
6537;SDS011;3302;52.508;13.454;2023-05-07T07:33:04;4.90;;;3.97;;
6537;SDS011;3302;52.508;13.454;2023-05-07T07:35:33;4.60;;;3.87;;
6537;SDS011;3302;52.508;13.454;2023-05-07T07:38:00;4.17;;;3.60;;
6537;SDS011;3302;52.508;13.454;2023-05-07T07:40:26;4.20;;;3.63;;
6537;SDS011;3302;52.508;13.454;2023-05-07T07:42:52;4.17;;;3.77;;
6537;SDS011;3302;52.508;13.454;2023-05-07T07:45:19;4.10;;;3.60;;
6537;SDS011;3302;52.508;13.454;2023-05-07T07:47:45;5.07;;;3.63;;
6537;SDS011;3302;52.508;13.454;2023-05-07T07:50:11;3.40;;;3.10;;
6537;SDS011;3302;52.508;13.454;2023-05-07T07:52:37;4.80;;;3.40;;
6537;SDS011;3302;52.508;13.454;2023-05-07T07:55:03;5.07;;;3.50;;
6537;SDS011;3302;52.508;13.454;2023-05-07T07:57:29;6.10;;;3.87;;
6537;SDS011;3302;52.508;13.454;2023-05-07T07:59:55;4.37;;;3.30;;
6537;SDS011;3302;52.508;13.454;2023-05-07T08:02:21;3.67;;;3.37;;
6537;SDS011;3302;52.508;13.454;2023-05-07T08:04:47;3.27;;;2.97;;
6537;SDS011;3302;52.508;13.454;2023-05-07T08:07:12;4.00;;;2.80;;
6537;SDS011;3302;52.508;13.454;2023-05-07T08:09:38;2.90;;;2.43;;
6537;SDS011;3302;52.508;13.454;2023-05-07T08:12:05;4.70;;;2.90;;
6537;SDS011;3302;52.508;13.454;2023-05-07T08:14:32;3.83;;;3.10;;
6537;SDS011;3302;52.508;13.454;2023-05-07T08:16:58;3.53;;;3.17;;
6537;SDS011;3302;52.508;13.454;2023-05-07T08:19:24;3.73;;;3.00;;
6537;SDS011;3302;52.508;13.454;2023-05-07T08:21:50;3.40;;;3.10;;
6537;SDS011;3302;52.508;13.454;2023-05-07T08:24:16;4.33;;;2.80;;
6537;SDS011;3302;52.508;13.454;2023-05-07T08:26:43;3.80;;;3.40;;
6537;SDS011;3302;52.508;13.454;2023-05-07T08:29:10;3.80;;;3.03;;
6537;SDS011;3302;52.508;13.454;2023-05-07T08:31:36;3.60;;;3.00;;
6537;SDS011;3302;52.508;13.454;2023-05-07T08:34:04;2.93;;;2.63;;
6537;SDS011;3302;52.508;13.454;2023-05-07T08:36:31;4.07;;;2.77;;
6537;SDS011;3302;52.508;13.454;2023-05-07T08:38:57;3.97;;;2.97;;
6537;SDS011;3302;52.508;13.454;2023-05-07T08:41:24;4.07;;;2.80;;
6537;SDS011;3302;52.508;13.454;2023-05-07T08:43:50;4.00;;;2.97;;
6537;SDS011;3302;52.508;13.454;2023-05-07T08:46:17;3.20;;;2.70;;
6537;SDS011;3302;52.508;13.454;2023-05-07T08:48:44;5.20;;;2.77;;
6537;SDS011;3302;52.508;13.454;2023-05-07T08:51:13;3.40;;;2.90;;
6537;SDS011;3302;52.508;13.454;2023-05-07T08:53:42;5.90;;;3.13;;
6537;SDS011;3302;52.508;13.454;2023-05-07T08:56:09;3.97;;;3.07;;
6537;SDS011;3302;52.508;13.454;2023-05-07T08:58:36;3.30;;;2.83;;
6537;SDS011;3302;52.508;13.454;2023-05-07T09:01:04;3.37;;;3.03;;
6537;SDS011;3302;52.508;13.454;2023-05-07T09:03:39;3.47;;;2.80;;
6537;SDS011;3302;52.508;13.454;2023-05-07T09:06:05;3.60;;;2.80;;
6537;SDS011;3302;52.508;13.454;2023-05-07T09:08:32;6.00;;;2.73;;
6537;SDS011;3302;52.508;13.454;2023-05-07T09:10:59;3.43;;;2.70;;
6537;SDS011;3302;52.508;13.454;2023-05-07T09:13:26;4.27;;;2.83;;
6537;SDS011;3302;52.508;13.454;2023-05-07T09:15:55;3.67;;;2.63;;
6537;SDS011;3302;52.508;13.454;2023-05-07T09:18:21;3.00;;;2.60;;
6537;SDS011;3302;52.508;13.454;2023-05-07T09:20:48;3.00;;;2.60;;
6537;SDS011;3302;52.508;13.454;2023-05-07T09:23:14;3.83;;;2.60;;
6537;SDS011;3302;52.508;13.454;2023-05-07T09:25:40;5.53;;;3.20;;
6537;SDS011;3302;52.508;13.454;2023-05-07T09:28:06;3.37;;;2.83;;
6537;SDS011;3302;52.508;13.454;2023-05-07T09:30:33;3.57;;;2.80;;
6537;SDS011;3302;52.508;13.454;2023-05-07T09:33:00;2.50;;;2.30;;
6537;SDS011;3302;52.508;13.454;2023-05-07T09:35:27;4.50;;;3.20;;
6537;SDS011;3302;52.508;13.454;2023-05-07T09:37:54;4.47;;;2.80;;
6537;SDS011;3302;52.508;13.454;2023-05-07T09:40:21;4.07;;;2.63;;
6537;SDS011;3302;52.508;13.454;2023-05-07T09:42:49;2.80;;;2.50;;
6537;SDS011;3302;52.508;13.454;2023-05-07T09:45:15;4.30;;;2.60;;
6537;SDS011;3302;52.508;13.454;2023-05-07T09:47:46;2.47;;;2.27;;
6537;SDS011;3302;52.508;13.454;2023-05-07T09:50:15;3.10;;;2.70;;
6537;SDS011;3302;52.508;13.454;2023-05-07T09:52:42;4.27;;;2.40;;
6537;SDS011;3302;52.508;13.454;2023-05-07T09:55:09;2.83;;;2.30;;
6537;SDS011;3302;52.508;13.454;2023-05-07T09:57:38;5.27;;;2.90;;
6537;SDS011;3302;52.508;13.454;2023-05-07T10:00:05;4.80;;;2.10;;
6537;SDS011;3302;52.508;13.454;2023-05-07T10:02:34;2.90;;;2.50;;
6537;SDS011;3302;52.508;13.454;2023-05-07T10:05:01;2.37;;;1.87;;
6537;SDS011;3302;52.508;13.454;2023-05-07T10:07:28;3.73;;;3.00;;
6537;SDS011;3302;52.508;13.454;2023-05-07T10:09:55;4.97;;;2.87;;
6537;SDS011;3302;52.508;13.454;2023-05-07T10:12:22;2.10;;;1.90;;
6537;SDS011;3302;52.508;13.454;2023-05-07T10:14:49;3.50;;;2.30;;
6537;SDS011;3302;52.508;13.454;2023-05-07T10:17:18;2.17;;;1.97;;
6537;SDS011;3302;52.508;13.454;2023-05-07T10:19:44;2.80;;;2.17;;
6537;SDS011;3302;52.508;13.454;2023-05-07T10:22:10;2.37;;;2.03;;
6537;SDS011;3302;52.508;13.454;2023-05-07T10:24:39;2.80;;;2.00;;
6537;SDS011;3302;52.508;13.454;2023-05-07T10:27:05;8.33;;;5.30;;
6537;SDS011;3302;52.508;13.454;2023-05-07T10:34:53;2.20;;;2.00;;
6537;SDS011;3302;52.508;13.454;2023-05-07T10:37:21;2.67;;;2.47;;
6537;SDS011;3302;52.508;13.454;2023-05-07T10:39:48;2.97;;;2.40;;
6537;SDS011;3302;52.508;13.454;2023-05-07T10:42:14;3.20;;;2.20;;
6537;SDS011;3302;52.508;13.454;2023-05-07T10:44:40;3.40;;;2.40;;
6537;SDS011;3302;52.508;13.454;2023-05-07T10:54:43;2.60;;;1.90;;
6537;SDS011;3302;52.508;13.454;2023-05-07T10:59:54;2.27;;;1.97;;
6537;SDS011;3302;52.508;13.454;2023-05-07T11:02:21;3.27;;;2.20;;
6537;SDS011;3302;52.508;13.454;2023-05-07T11:07:53;5.33;;;3.00;;
6537;SDS011;3302;52.508;13.454;2023-05-07T11:10:20;2.40;;;2.10;;
6537;SDS011;3302;52.508;13.454;2023-05-07T11:12:47;3.17;;;2.10;;
6537;SDS011;3302;52.508;13.454;2023-05-07T11:15:15;1.97;;;1.70;;
6537;SDS011;3302;52.508;13.454;2023-05-07T11:17:58;3.40;;;2.17;;
6537;SDS011;3302;52.508;13.454;2023-05-07T11:26:02;3.00;;;2.03;;
6537;SDS011;3302;52.508;13.454;2023-05-07T11:28:38;2.40;;;2.20;;
6537;SDS011;3302;52.508;13.454;2023-05-07T11:31:05;2.27;;;1.93;;
6537;SDS011;3302;52.508;13.454;2023-05-07T11:33:32;2.17;;;1.90;;
6537;SDS011;3302;52.508;13.454;2023-05-07T11:36:02;3.77;;;1.93;;
6537;SDS011;3302;52.508;13.454;2023-05-07T11:38:29;3.70;;;2.23;;
6537;SDS011;3302;52.508;13.454;2023-05-07T11:40:57;3.67;;;2.27;;
6537;SDS011;3302;52.508;13.454;2023-05-07T11:43:26;3.90;;;2.20;;
6537;SDS011;3302;52.508;13.454;2023-05-07T11:45:52;3.50;;;2.60;;
6537;SDS011;3302;52.508;13.454;2023-05-07T11:48:18;2.87;;;2.10;;
6537;SDS011;3302;52.508;13.454;2023-05-07T11:53:27;3.30;;;2.27;;
6537;SDS011;3302;52.508;13.454;2023-05-07T11:56:00;2.10;;;1.83;;
6537;SDS011;3302;52.508;13.454;2023-05-07T11:58:35;2.13;;;1.80;;
6537;SDS011;3302;52.508;13.454;2023-05-07T12:01:01;2.63;;;1.80;;
6537;SDS011;3302;52.508;13.454;2023-05-07T12:03:27;2.27;;;1.87;;
6537;SDS011;3302;52.508;13.454;2023-05-07T12:05:53;3.17;;;2.40;;
6537;SDS011;3302;52.508;13.454;2023-05-07T12:08:19;2.87;;;2.17;;
6537;SDS011;3302;52.508;13.454;2023-05-07T12:10:48;3.60;;;1.80;;
6537;SDS011;3302;52.508;13.454;2023-05-07T12:13:15;2.60;;;1.80;;
6537;SDS011;3302;52.508;13.454;2023-05-07T12:15:41;3.33;;;2.20;;
6537;SDS011;3302;52.508;13.454;2023-05-07T12:18:08;2.87;;;1.90;;
6537;SDS011;3302;52.508;13.454;2023-05-07T12:20:37;1.60;;;1.50;;
6537;SDS011;3302;52.508;13.454;2023-05-07T12:23:04;3.07;;;1.90;;
6537;SDS011;3302;52.508;13.454;2023-05-07T12:25:30;3.37;;;2.00;;
6537;SDS011;3302;52.508;13.454;2023-05-07T12:28:00;3.97;;;2.30;;
6537;SDS011;3302;52.508;13.454;2023-05-07T12:30:27;3.73;;;2.00;;
6537;SDS011;3302;52.508;13.454;2023-05-07T12:32:54;2.67;;;1.93;;
6537;SDS011;3302;52.508;13.454;2023-05-07T12:35:27;2.73;;;2.40;;
6537;SDS011;3302;52.508;13.454;2023-05-07T12:37:57;2.10;;;1.73;;
6537;SDS011;3302;52.508;13.454;2023-05-07T12:40:34;2.27;;;1.90;;
6537;SDS011;3302;52.508;13.454;2023-05-07T12:43:04;2.70;;;2.40;;
6537;SDS011;3302;52.508;13.454;2023-05-07T12:45:30;2.30;;;1.70;;
6537;SDS011;3302;52.508;13.454;2023-05-07T12:47:56;2.27;;;2.07;;
6537;SDS011;3302;52.508;13.454;2023-05-07T12:50:33;3.73;;;2.73;;
6537;SDS011;3302;52.508;13.454;2023-05-07T12:52:59;3.67;;;1.80;;
6537;SDS011;3302;52.508;13.454;2023-05-07T12:55:25;1.70;;;1.50;;
6537;SDS011;3302;52.508;13.454;2023-05-07T12:57:51;2.00;;;1.67;;
6537;SDS011;3302;52.508;13.454;2023-05-07T13:00:39;2.00;;;1.83;;
6537;SDS011;3302;52.508;13.454;2023-05-07T13:03:05;1.90;;;1.60;;
6537;SDS011;3302;52.508;13.454;2023-05-07T13:05:31;2.70;;;2.00;;
6537;SDS011;3302;52.508;13.454;2023-05-07T13:07:59;4.23;;;1.70;;
6537;SDS011;3302;52.508;13.454;2023-05-07T13:10:25;3.67;;;2.07;;
6537;SDS011;3302;52.508;13.454;2023-05-07T13:12:51;9.23;;;6.20;;
6537;SDS011;3302;52.508;13.454;2023-05-07T13:15:18;5.03;;;2.57;;
6537;SDS011;3302;52.508;13.454;2023-05-07T13:17:44;3.47;;;2.50;;
6537;SDS011;3302;52.508;13.454;2023-05-07T13:20:10;3.40;;;3.00;;
6537;SDS011;3302;52.508;13.454;2023-05-07T13:22:39;3.10;;;2.10;;
6537;SDS011;3302;52.508;13.454;2023-05-07T13:25:05;2.73;;;2.20;;
6537;SDS011;3302;52.508;13.454;2023-05-07T13:27:31;4.13;;;2.60;;
6537;SDS011;3302;52.508;13.454;2023-05-07T13:30:00;2.20;;;2.00;;
6537;SDS011;3302;52.508;13.454;2023-05-07T13:32:26;2.80;;;1.97;;
6537;SDS011;3302;52.508;13.454;2023-05-07T13:34:52;3.10;;;2.20;;
6537;SDS011;3302;52.508;13.454;2023-05-07T13:37:18;3.10;;;1.87;;
6537;SDS011;3302;52.508;13.454;2023-05-07T13:39:43;3.90;;;1.90;;
6537;SDS011;3302;52.508;13.454;2023-05-07T13:42:10;2.50;;;1.97;;
6537;SDS011;3302;52.508;13.454;2023-05-07T13:44:36;2.97;;;2.00;;
6537;SDS011;3302;52.508;13.454;2023-05-07T13:47:02;1.70;;;1.60;;
6537;SDS011;3302;52.508;13.454;2023-05-07T13:49:28;3.47;;;2.17;;
6537;SDS011;3302;52.508;13.454;2023-05-07T13:51:54;3.83;;;2.03;;
6537;SDS011;3302;52.508;13.454;2023-05-07T13:54:20;3.37;;;1.53;;
6537;SDS011;3302;52.508;13.454;2023-05-07T13:56:46;3.07;;;1.80;;
6537;SDS011;3302;52.508;13.454;2023-05-07T13:59:12;4.33;;;2.00;;
6537;SDS011;3302;52.508;13.454;2023-05-07T14:01:40;2.93;;;1.90;;
6537;SDS011;3302;52.508;13.454;2023-05-07T14:04:07;2.70;;;1.90;;
6537;SDS011;3302;52.508;13.454;2023-05-07T14:06:33;2.73;;;2.00;;
6537;SDS011;3302;52.508;13.454;2023-05-07T14:08:59;3.23;;;1.90;;
6537;SDS011;3302;52.508;13.454;2023-05-07T14:11:25;2.60;;;2.10;;
6537;SDS011;3302;52.508;13.454;2023-05-07T14:13:51;3.47;;;1.90;;
6537;SDS011;3302;52.508;13.454;2023-05-07T14:16:16;2.73;;;1.87;;
6537;SDS011;3302;52.508;13.454;2023-05-07T14:18:42;4.93;;;1.87;;
6537;SDS011;3302;52.508;13.454;2023-05-07T14:21:08;3.90;;;2.00;;
6537;SDS011;3302;52.508;13.454;2023-05-07T14:23:34;4.13;;;2.07;;
6537;SDS011;3302;52.508;13.454;2023-05-07T14:26:01;1.80;;;1.70;;
6537;SDS011;3302;52.508;13.454;2023-05-07T14:28:27;2.00;;;1.70;;
6537;SDS011;3302;52.508;13.454;2023-05-07T14:30:53;2.43;;;1.73;;
6537;SDS011;3302;52.508;13.454;2023-05-07T14:33:18;2.37;;;1.80;;
6537;SDS011;3302;52.508;13.454;2023-05-07T14:35:44;2.00;;;1.80;;
6537;SDS011;3302;52.508;13.454;2023-05-07T14:38:14;2.43;;;1.60;;
6537;SDS011;3302;52.508;13.454;2023-05-07T14:40:41;2.50;;;1.67;;
6537;SDS011;3302;52.508;13.454;2023-05-07T14:43:07;2.43;;;1.70;;
6537;SDS011;3302;52.508;13.454;2023-05-07T14:45:33;3.37;;;1.80;;
6537;SDS011;3302;52.508;13.454;2023-05-07T14:47:59;3.27;;;2.17;;
6537;SDS011;3302;52.508;13.454;2023-05-07T14:50:24;2.50;;;1.90;;
6537;SDS011;3302;52.508;13.454;2023-05-07T14:52:50;2.30;;;1.70;;
6537;SDS011;3302;52.508;13.454;2023-05-07T14:55:16;2.33;;;1.70;;
6537;SDS011;3302;52.508;13.454;2023-05-07T14:57:42;2.67;;;2.17;;
6537;SDS011;3302;52.508;13.454;2023-05-07T15:00:08;2.63;;;1.77;;
6537;SDS011;3302;52.508;13.454;2023-05-07T15:02:34;2.47;;;1.63;;
6537;SDS011;3302;52.508;13.454;2023-05-07T15:05:00;3.27;;;2.20;;
6537;SDS011;3302;52.508;13.454;2023-05-07T15:07:26;5.77;;;1.93;;
6537;SDS011;3302;52.508;13.454;2023-05-07T15:09:52;2.50;;;1.93;;
6537;SDS011;3302;52.508;13.454;2023-05-07T15:12:17;5.27;;;2.17;;
6537;SDS011;3302;52.508;13.454;2023-05-07T15:14:43;2.27;;;1.47;;
6537;SDS011;3302;52.508;13.454;2023-05-07T15:17:09;2.30;;;1.93;;
6537;SDS011;3302;52.508;13.454;2023-05-07T15:19:35;3.07;;;1.60;;
6537;SDS011;3302;52.508;13.454;2023-05-07T15:22:00;2.93;;;1.97;;
6537;SDS011;3302;52.508;13.454;2023-05-07T15:24:29;3.07;;;2.10;;